Ben — 9VJM4 — position and weather

sailwx.info

Track history (hours):
 
Tides and Currents Weather Stations Pressure Air Temp Water Temp Dewpoint Dewpoint Depression Visibility Wind Speed Wind Dir Waves Ship Positions

Ben

Last reported at 2014-Nov-27 22:21 UTC. Time now 2014-Nov-27 23:08 UTC.
Position N 37°45' E 122°39'.

Length 127 m; draft 8.1 m.

Type: Ship. MMSI: 565611000.

Date/timePositionNaut miles runAvg speedWind from/ knotsBaromVisibWave heightAir tempDewpointWater temp
2014-Nov-27 22:21N 37°45' E 122°39'3711.2
2014-Nov-27 19:05N 37°11' E 122°53'611.2
2014-Nov-27 18:31N 37°04' E 122°52'1111.7
2014-Nov-27 17:33N 36°53' E 122°53'1312.4
2014-Nov-27 16:33N 36°41' E 122°55'  
2014-Nov-24 23:25N 24°38' E 119°31'1214.1
2014-Nov-24 22:33N 24°27' E 119°24'1413.1
2014-Nov-24 21:27N 24°14' E 119°17'2312.2
2014-Nov-24 19:31N 23°58' E 118°58'1111.6
2014-Nov-24 18:32N 23°50' E 118°49'1111.6
2014-Nov-24 17:33N 23°43' E 118°40'1212.2
2014-Nov-24 16:33N 23°35' E 118°29'1313.0
2014-Nov-24 15:32N 23°26' E 118°19'1814.0
2014-Nov-24 14:16N 23°13' E 118°05'3013.4
2014-Nov-24 12:03N 22°53' E 117°42'1111.7
2014-Nov-24 11:06N 22°46' E 117°32'1911.4
2014-Nov-24 09:27N 22°29' E 117°23'1111.4
2014-Nov-24 08:31N 22°20' E 117°16'  
2014-Nov-18 14:06N 01°14' E 104°02'611.1
2014-Nov-18 13:33N 01°13' E 103°56'  
Track history (hours):
 
Tides and Currents Weather Stations Pressure Air Temp Water Temp Dewpoint Dewpoint Depression Visibility Wind Speed Wind Dir Waves Ship Positions

Ben

Last reported at 2014-Nov-27 22:21 UTC. Time now 2014-Nov-27 23:08 UTC.
Position N 37°45' E 122°39'.

Length 127 m; draft 8.1 m.

Type: Ship. MMSI: 565611000.

Date/timePositionNaut miles runAvg speedWind from/ knotsBaromVisibWave heightAir tempDewpointWater temp
2014-Nov-27 22:21N 37°45' E 122°39'3711.2
2014-Nov-27 19:05N 37°11' E 122°53'611.2
2014-Nov-27 18:31N 37°04' E 122°52'1111.7
2014-Nov-27 17:33N 36°53' E 122°53'1312.4
2014-Nov-27 16:33N 36°41' E 122°55'  
2014-Nov-24 23:25N 24°38' E 119°31'1214.1
2014-Nov-24 22:33N 24°27' E 119°24'1413.1
2014-Nov-24 21:27N 24°14' E 119°17'2312.2
2014-Nov-24 19:31N 23°58' E 118°58'1111.6
2014-Nov-24 18:32N 23°50' E 118°49'1111.6
2014-Nov-24 17:33N 23°43' E 118°40'1212.2
2014-Nov-24 16:33N 23°35' E 118°29'1313.0
2014-Nov-24 15:32N 23°26' E 118°19'1814.0
2014-Nov-24 14:16N 23°13' E 118°05'3013.4
2014-Nov-24 12:03N 22°53' E 117°42'1111.7
2014-Nov-24 11:06N 22°46' E 117°32'1911.4
2014-Nov-24 09:27N 22°29' E 117°23'1111.4
2014-Nov-24 08:31N 22°20' E 117°16'  
2014-Nov-18 14:06N 01°14' E 104°02'611.1
2014-Nov-18 13:33N 01°13' E 103°56'  

Dump ship's entire track history